Waterbury, CT (06701)

6:40 PM EDT on August 30, 2016 (GMT -0400)
Overlook | | Change Station
Active Advisory: Air Quality Alert

Elev 577 ft 41.58 °N, 73.04 °W | Updated 5 seconds ago

Scattered Clouds
Scattered Clouds
78.8 °F
Feels Like 80 °F
N
0.0
Wind Variable Wind from North
Gusts 1.0 mph

Today
High -- | Low -- °F
--% Chance of Precip.
Yesterday
High -- | Low -- °F
Precip. -- in
Pressure 30.11 in
Visibility 10.0 miles
Clouds Few 4500 ft
Scattered Clouds 25000 ft
Heat Index 80 °F
Dew Point 63 °F
Humidity 58%
Rainfall 0.00 in
Snow Depth Not available.
6:16 AM 7:27 PM
Waning Crescent, 2% visible
METAR KOXC 302150Z 31003KT 10SM FEW045 SCT250 26/13 A3011
Pressure 30.11 in
Visibility 10.0 miles
Clouds Few 4500 ft
Scattered Clouds 25000 ft
Heat Index 80 °F
Dew Point 63 °F
Humidity 58%
Rainfall 0.00 in
Snow Depth Not available.
6:16 AM 7:27 PM
Waning Crescent, 2% visible
METAR KOXC 302150Z 31003KT 10SM FEW045 SCT250 26/13 A3011

10-Day Weather Forecast

Almanac

Astronomy

Aug. 30, 2016 Rise Set
Actual Time
Civil Twilight
Nautical Twilight
Astronomical Twilight
Moon
Length of Visible Light
Length of Day
Tomorrow will be .
, % of the Moon is Illuminated

Today's Extremes

State Highs State Lows

Community

WunderPhotos

Upload Photos

1,935,914 photos uploaded!

WunderBlog® & News

Nearby

Air Quality

  Air Quality AQ Index Pollutant
Not available.

Snow Depth

Station Depth Elevation

Earthquake Activity

City Distance Mag. Time & Date
Minimum magnitude displayed is 2.5.

Coastal Water Temperatures

Place Temperature

Stations

Nearby Weather Stations

Station Location Temp. Windchill Dew Point Humidity Wind Precip. Elev Updated Type
                   

Watches & Warnings

Air Quality Alert
Issued: 3:50 PM EDT Aug. 30, 2016 – National Weather Service

... Air quality alert is in effect from 11 am Wednesday until 11 PM
Wednesday...

The Connecticut department of energy and
environmental protection has issued an air quality action day for
the following counties...

Fairfield... Middlesex and New Haven.

An air quality action day means that ozone within the region may
approach or exceed unhealthy standards. For additional information...
please visit the Connecticut department of environmental protection
web site at http://www.CT.Gov/deep/aqi




Maloit


350 PM EDT Tue Aug 30 2016

... Air quality alert is in effect from 11 am Wednesday until 11 PM
Wednesday...

The Connecticut department of energy and
environmental protection has issued an air quality action day for
the following counties...

Fairfield... Middlesex and New Haven.

An air quality action day means that ozone within the region may
approach or exceed unhealthy standards. For additional information...
please visit the Connecticut department of environmental protection
web site at http://www.CT.Gov/deep/aqi




Maloit